createdAt,value
2022-07-27T00:01:09.997Z,15.19
2022-07-27T00:03:39.368Z,15.37
2022-07-27T00:06:07.777Z,15.06
2022-07-27T00:08:35.963Z,15.21
2022-07-27T00:11:04.149Z,15.28
2022-07-27T00:13:32.215Z,15.34
2022-07-27T00:16:00.235Z,15.29
2022-07-27T00:18:28.190Z,14.83
2022-07-27T00:20:57.506Z,15.21
2022-07-27T00:23:25.457Z,14.89
2022-07-27T00:25:53.585Z,15.08
2022-07-27T00:28:21.560Z,15.17
2022-07-27T00:30:49.591Z,14.83
2022-07-27T00:33:17.693Z,15.01
2022-07-27T00:35:46.058Z,14.92
2022-07-27T00:38:16.640Z,15.04
2022-07-27T00:40:45.242Z,14.54
2022-07-27T00:43:13.372Z,14.36
2022-07-27T00:45:41.775Z,14.17
2022-07-27T00:48:09.750Z,14.43
2022-07-27T00:50:39.082Z,14.10
2022-07-27T00:53:07.075Z,14.39
2022-07-27T00:55:36.870Z,14.50
2022-07-27T00:58:06.107Z,14.53
2022-07-27T01:00:34.064Z,14.73
2022-07-27T01:03:07.393Z,14.82
2022-07-27T01:05:43.190Z,14.58
2022-07-27T01:08:14.112Z,14.62
2022-07-27T01:10:44.725Z,14.35
2022-07-27T01:13:13.487Z,14.50
2022-07-27T01:15:42.872Z,14.67
2022-07-27T01:18:13.142Z,14.84
2022-07-27T01:20:41.619Z,14.73
2022-07-27T01:23:11.178Z,14.76
2022-07-27T01:25:42.626Z,14.74
2022-07-27T01:28:10.686Z,14.52
2022-07-27T01:30:38.655Z,14.77
2022-07-27T01:33:08.462Z,14.21
2022-07-27T01:35:36.579Z,14.35
2022-07-27T01:38:05.041Z,14.60
2022-07-27T01:40:36.700Z,14.73
2022-07-27T01:43:05.174Z,14.61
2022-07-27T01:45:33.291Z,14.63
2022-07-27T01:48:01.234Z,14.60
2022-07-27T01:50:29.644Z,14.81
2022-07-27T01:52:57.573Z,14.67
2022-07-27T01:55:25.525Z,14.71
2022-07-27T01:57:54.842Z,14.99
2022-07-27T02:00:22.792Z,14.86
2022-07-27T02:02:50.716Z,14.77
2022-07-27T02:05:18.728Z,14.71
2022-07-27T02:07:46.723Z,14.89
2022-07-27T02:10:14.666Z,14.86
2022-07-27T02:12:41.699Z,14.56
2022-07-27T02:15:14.880Z,14.40
2022-07-27T02:17:44.766Z,14.47
2022-07-27T02:20:14.390Z,14.72
2022-07-27T02:22:42.695Z,14.72
2022-07-27T02:25:12.166Z,14.66
2022-07-27T02:27:40.388Z,14.07
2022-07-27T02:30:11.346Z,14.20
2022-07-27T02:32:40.551Z,14.27
2022-07-27T02:35:18.568Z,14.07
2022-07-27T02:37:48.230Z,14.48
2022-07-27T02:40:17.316Z,14.60
2022-07-27T02:42:45.681Z,14.65
2022-07-27T02:45:15.268Z,14.41
2022-07-27T02:47:43.513Z,14.45
2022-07-27T02:50:12.155Z,14.38
2022-07-27T02:52:40.335Z,14.49
2022-07-27T02:55:09.204Z,14.58
2022-07-27T02:57:40.857Z,14.34
2022-07-27T03:00:12.518Z,14.61
2022-07-27T03:02:42.172Z,14.39
2022-07-27T03:05:11.080Z,14.53
2022-07-27T03:07:39.148Z,14.56
2022-07-27T03:10:08.038Z,14.64
2022-07-27T03:12:36.079Z,14.60
2022-07-27T03:15:04.199Z,14.60
2022-07-27T03:17:32.937Z,14.47
2022-07-27T03:20:02.359Z,14.51
2022-07-27T03:22:32.620Z,14.29
2022-07-27T03:25:00.694Z,14.52
2022-07-27T03:27:29.183Z,14.40
2022-07-27T03:29:57.266Z,14.31
2022-07-27T03:32:25.592Z,14.28
2022-07-27T03:34:53.649Z,14.07
2022-07-27T03:37:22.964Z,14.34
2022-07-27T03:39:50.931Z,14.08
2022-07-27T03:42:18.846Z,14.16
2022-07-27T03:44:46.795Z,14.67
2022-07-27T03:47:14.898Z,14.43
2022-07-27T03:49:42.843Z,14.11
2022-07-27T03:52:15.683Z,13.75
2022-07-27T03:54:47.047Z,14.02
2022-07-27T03:57:15.708Z,14.11
2022-07-27T03:59:43.640Z,14.01
2022-07-27T04:02:11.775Z,14.21
2022-07-27T04:04:39.861Z,13.80
2022-07-27T04:07:07.841Z,14.18
2022-07-27T04:09:36.118Z,14.33
2022-07-27T04:12:06.137Z,14.53
2022-07-27T04:14:34.127Z,14.47
2022-07-27T04:17:02.186Z,14.34
2022-07-27T04:19:30.222Z,14.21
2022-07-27T04:21:58.319Z,13.98
2022-07-27T04:24:26.283Z,14.34
2022-07-27T04:26:54.197Z,14.48
2022-07-27T04:29:23.938Z,14.49
2022-07-27T04:31:52.262Z,14.58
2022-07-27T04:34:21.193Z,14.48
2022-07-27T04:36:49.927Z,14.57
2022-07-27T04:39:17.915Z,14.05
2022-07-27T04:41:45.913Z,13.94
2022-07-27T04:44:13.988Z,13.93
2022-07-27T04:46:43.678Z,14.31
2022-07-27T04:49:11.903Z,14.55
2022-07-27T04:51:43.803Z,14.73
2022-07-27T04:54:12.403Z,14.58
2022-07-27T04:56:40.389Z,14.63
2022-07-27T04:59:08.525Z,14.39
2022-07-27T05:01:37.088Z,14.57
2022-07-27T05:04:06.734Z,14.34
2022-07-27T05:06:34.910Z,14.41
2022-07-27T05:09:02.898Z,14.68
2022-07-27T05:11:30.887Z,14.01
2022-07-27T05:13:58.830Z,14.48
2022-07-27T05:16:29.031Z,14.50
2022-07-27T05:18:57.453Z,14.64
2022-07-27T05:21:27.400Z,14.45
2022-07-27T05:23:56.059Z,14.29
2022-07-27T05:26:24.139Z,14.58
2022-07-27T05:28:52.114Z,14.62
2022-07-27T05:31:20.167Z,14.80
2022-07-27T05:33:49.909Z,15.09
2022-07-27T05:36:19.298Z,14.72
2022-07-27T05:38:48.661Z,14.78
2022-07-27T05:41:16.722Z,14.78
2022-07-27T05:43:44.679Z,14.99
2022-07-27T05:46:12.758Z,14.97
2022-07-27T05:48:40.765Z,14.86
2022-07-27T05:51:09.588Z,14.73
2022-07-27T05:53:37.528Z,14.91
2022-07-27T05:56:07.999Z,15.26
2022-07-27T05:58:36.272Z,14.76
2022-07-27T06:01:04.560Z,15.18
2022-07-27T06:03:32.952Z,15.25
2022-07-27T06:06:18.546Z,15.58
2022-07-27T06:08:46.463Z,15.46
2022-07-27T06:11:15.801Z,15.14
2022-07-27T06:13:43.804Z,15.31
2022-07-27T06:16:11.989Z,14.99
2022-07-27T06:18:40.231Z,15.38
2022-07-27T06:21:08.197Z,15.70
2022-07-27T06:23:36.118Z,15.61
2022-07-27T06:26:04.055Z,15.79
2022-07-27T06:28:33.545Z,15.59
2022-07-27T06:31:01.480Z,15.56
2022-07-27T06:33:30.843Z,15.49
2022-07-27T06:36:01.473Z,15.52
2022-07-27T06:38:30.022Z,15.50
2022-07-27T06:40:58.347Z,15.41
2022-07-27T06:43:28.006Z,15.75
2022-07-27T06:45:58.292Z,15.72
2022-07-27T06:48:26.764Z,15.68
2022-07-27T06:50:55.114Z,15.70
2022-07-27T06:53:23.309Z,15.70
2022-07-27T06:55:51.534Z,15.82
2022-07-27T06:58:20.109Z,15.96
2022-07-27T07:00:48.697Z,16.18
2022-07-27T07:03:18.639Z,16.02
2022-07-27T07:05:48.055Z,15.65
2022-07-27T07:08:15.993Z,15.76
2022-07-27T07:10:45.251Z,16.04
2022-07-27T07:13:13.289Z,16.03
2022-07-27T07:15:42.684Z,16.15
2022-07-27T07:18:11.868Z,16.32
2022-07-27T07:20:41.830Z,16.35
2022-07-27T07:23:10.070Z,16.76
2022-07-27T07:25:38.631Z,16.55
2022-07-27T07:28:07.647Z,16.90
2022-07-27T07:30:35.749Z,16.38
2022-07-27T07:33:03.866Z,16.45
2022-07-27T07:35:31.858Z,16.39
2022-07-27T07:38:01.230Z,17.06
2022-07-27T07:40:43.305Z,16.87
2022-07-27T07:43:13.205Z,16.85
2022-07-27T07:45:51.069Z,17.29
2022-07-27T07:48:20.278Z,17.06
2022-07-27T07:50:52.094Z,17.31
2022-07-27T07:53:23.076Z,17.18
2022-07-27T07:55:51.479Z,17.46
2022-07-27T07:58:19.668Z,17.55
2022-07-27T08:00:47.689Z,17.37
2022-07-27T08:03:15.992Z,17.58
2022-07-27T08:05:44.154Z,17.56
2022-07-27T08:08:12.281Z,17.95
2022-07-27T08:10:41.588Z,17.86
2022-07-27T08:13:09.859Z,18.26
2022-07-27T08:15:37.922Z,18.48
2022-07-27T08:18:06.626Z,18.59
2022-07-27T08:20:35.056Z,18.80
2022-07-27T08:23:03.435Z,18.75
2022-07-27T08:25:31.572Z,18.85
2022-07-27T08:28:02.032Z,18.26
2022-07-27T08:30:32.449Z,18.25
2022-07-27T08:33:02.519Z,18.42
2022-07-27T08:35:31.084Z,18.16
2022-07-27T08:37:59.091Z,18.12
2022-07-27T08:40:45.947Z,18.38
2022-07-27T08:43:24.039Z,18.27
2022-07-27T08:45:57.148Z,17.57
2022-07-27T08:48:25.836Z,17.85
2022-07-27T08:50:54.481Z,17.97
2022-07-27T08:53:22.923Z,18.16
2022-07-27T08:55:51.161Z,18.47
2022-07-27T08:58:20.694Z,18.29
2022-07-27T09:00:49.968Z,18.38
2022-07-27T09:03:21.064Z,19.07
2022-07-27T09:05:51.053Z,19.21
2022-07-27T09:08:22.574Z,19.03
2022-07-27T09:10:51.122Z,19.08
2022-07-27T09:13:23.268Z,19.07
2022-07-27T09:16:17.002Z,18.97
2022-07-27T09:18:40.706Z,18.57
2022-07-27T09:21:10.481Z,18.67
2022-07-27T09:23:38.689Z,18.35
2022-07-27T09:26:30.577Z,17.66
2022-07-27T09:29:03.323Z,18.99
2022-07-27T09:31:31.843Z,19.39
2022-07-27T09:34:01.290Z,19.22
2022-07-27T09:36:30.149Z,19.00
2022-07-27T09:39:03.232Z,19.86
2022-07-27T09:41:42.693Z,19.69
2022-07-27T09:44:31.202Z,19.35
2022-07-27T09:47:00.273Z,19.94
2022-07-27T09:49:30.090Z,19.25
2022-07-27T09:52:00.510Z,19.63
2022-07-27T09:54:29.338Z,18.86
2022-07-27T09:57:04.090Z,19.38
2022-07-27T09:59:33.405Z,19.03
2022-07-27T10:02:01.700Z,18.56
2022-07-27T10:04:29.808Z,19.20
2022-07-27T10:07:08.340Z,19.28
2022-07-27T10:09:40.578Z,19.06
2022-07-27T10:12:09.650Z,18.33
2022-07-27T10:14:38.966Z,19.06
2022-07-27T10:17:07.594Z,19.44
2022-07-27T10:19:40.530Z,18.67
2022-07-27T10:22:08.517Z,19.41
2022-07-27T10:24:37.370Z,19.32
2022-07-27T10:27:20.447Z,19.31
2022-07-27T10:29:51.120Z,18.21
2022-07-27T10:32:25.657Z,19.29
2022-07-27T10:34:53.658Z,18.96
2022-07-27T10:37:26.505Z,19.27
2022-07-27T10:40:16.108Z,20.04
2022-07-27T10:42:44.422Z,19.96
2022-07-27T10:45:14.792Z,20.23
2022-07-27T10:47:45.844Z,20.08
2022-07-27T10:50:33.442Z,19.68
2022-07-27T10:53:03.908Z,19.76
2022-07-27T10:55:51.637Z,20.26
2022-07-27T10:58:44.858Z,20.02
2022-07-27T11:01:15.824Z,20.32
2022-07-27T11:03:49.442Z,19.40
2022-07-27T11:06:32.999Z,19.59
2022-07-27T11:10:02.489Z,19.70
2022-07-27T11:11:54.910Z,20.56
2022-07-27T11:14:30.180Z,20.70
2022-07-27T11:17:32.514Z,20.46
2022-07-27T11:19:54.633Z,19.45
2022-07-27T11:23:03.136Z,20.56
2022-07-27T11:25:21.232Z,19.99
2022-07-27T11:27:51.451Z,20.66
2022-07-27T11:30:23.838Z,19.74
2022-07-27T11:32:53.708Z,20.09
2022-07-27T11:35:22.049Z,19.30
2022-07-27T11:38:00.952Z,19.89
2022-07-27T11:43:33.705Z,21.47
2022-07-27T11:46:13.570Z,21.03
2022-07-27T11:49:05.864Z,20.75
2022-07-27T11:51:35.343Z,21.19
2022-07-27T11:54:04.752Z,20.38
2022-07-27T11:56:34.718Z,20.77
2022-07-27T11:59:06.586Z,21.08
2022-07-27T12:01:36.643Z,21.03
2022-07-27T12:04:21.680Z,21.85
2022-07-27T12:06:56.458Z,20.84
2022-07-27T12:09:24.697Z,20.82
2022-07-27T12:11:58.883Z,21.87
2022-07-27T12:14:33.632Z,21.77
2022-07-27T12:17:19.976Z,21.23
2022-07-27T12:19:59.086Z,20.89
2022-07-27T12:22:30.343Z,20.66
2022-07-27T12:24:59.654Z,21.45
2022-07-27T12:27:28.927Z,20.91
2022-07-27T12:29:58.907Z,21.68
2022-07-27T12:32:27.680Z,20.30
2022-07-27T12:34:57.557Z,19.98
2022-07-27T12:37:30.581Z,20.30
2022-07-27T12:39:58.644Z,21.29
2022-07-27T12:42:37.488Z,21.51
2022-07-27T12:45:17.454Z,22.24
2022-07-27T12:47:45.756Z,22.73
2022-07-27T12:50:16.126Z,22.63
2022-07-27T12:52:47.117Z,22.52
2022-07-27T12:55:17.812Z,21.98
2022-07-27T12:57:55.687Z,22.14
2022-07-27T13:00:30.906Z,21.74
2022-07-27T13:03:01.790Z,22.80
2022-07-27T13:05:31.614Z,21.57
2022-07-27T13:07:59.782Z,21.96
2022-07-27T13:10:28.194Z,22.43
2022-07-27T13:12:56.252Z,23.77
2022-07-27T13:15:24.345Z,23.64
2022-07-27T13:17:52.291Z,23.09
2022-07-27T13:20:20.305Z,22.60
2022-07-27T13:22:49.757Z,21.78
2022-07-27T13:25:18.464Z,21.17
2022-07-27T13:27:47.260Z,20.94
2022-07-27T13:30:16.969Z,21.11
2022-07-27T13:32:46.733Z,21.59
2022-07-27T13:35:16.725Z,22.04
2022-07-27T13:37:45.815Z,21.37
2022-07-27T13:40:15.992Z,22.86
2022-07-27T13:42:43.939Z,23.04
2022-07-27T13:45:12.528Z,22.51
2022-07-27T13:47:41.630Z,22.45
2022-07-27T13:50:17.045Z,21.43
2022-07-27T13:52:46.071Z,22.74
2022-07-27T13:55:16.171Z,22.42
2022-07-27T13:57:44.357Z,22.13
2022-07-27T14:00:13.435Z,22.03
2022-07-27T14:02:41.872Z,21.09
2022-07-27T14:05:13.943Z,20.84
2022-07-27T14:07:43.258Z,21.56
2022-07-27T14:10:30.301Z,22.59
2022-07-27T14:13:07.424Z,22.83
2022-07-27T14:15:50.407Z,22.59
2022-07-27T14:18:26.213Z,21.26
2022-07-27T14:20:54.786Z,21.36
2022-07-27T14:23:23.300Z,22.01
2022-07-27T14:25:51.650Z,24.10
2022-07-27T14:28:21.426Z,23.08
2022-07-27T14:30:49.942Z,22.41
2022-07-27T14:33:18.003Z,21.65
2022-07-27T14:35:46.386Z,21.94
2022-07-27T14:38:15.165Z,22.00
2022-07-27T14:40:56.058Z,22.62
2022-07-27T14:43:25.462Z,22.22
2022-07-27T14:45:53.407Z,21.39
2022-07-27T14:48:36.801Z,23.27
2022-07-27T14:51:09.520Z,23.04
2022-07-27T14:53:37.475Z,23.66
2022-07-27T14:56:05.888Z,23.64
2022-07-27T14:58:35.204Z,23.81
2022-07-27T15:01:03.449Z,23.02
2022-07-27T15:03:31.480Z,22.99
2022-07-27T15:05:59.444Z,24.54
2022-07-27T15:08:27.414Z,22.90
2022-07-27T15:10:57.296Z,22.88
2022-07-27T15:13:25.656Z,23.27
2022-07-27T15:15:56.238Z,25.00
2022-07-27T15:18:24.306Z,23.25
2022-07-27T15:20:52.264Z,24.17
2022-07-27T15:23:20.204Z,23.07
2022-07-27T15:25:48.167Z,23.49
2022-07-27T15:28:16.590Z,24.19
2022-07-27T15:30:44.582Z,24.93
2022-07-27T15:33:13.879Z,23.93
2022-07-27T15:35:41.829Z,22.39
2022-07-27T15:38:09.816Z,24.26
2022-07-27T15:40:41.833Z,24.12
2022-07-27T15:43:12.279Z,24.00
2022-07-27T15:45:41.101Z,25.29
2022-07-27T15:48:10.216Z,23.93
2022-07-27T15:50:40.600Z,24.71
2022-07-27T15:53:08.941Z,25.78
2022-07-27T15:55:37.600Z,24.47
2022-07-27T15:58:05.800Z,24.85
2022-07-27T16:00:39.064Z,24.23
2022-07-27T16:03:08.333Z,24.21
2022-07-27T16:05:36.315Z,24.46
2022-07-27T16:08:06.218Z,24.30
2022-07-27T16:10:34.235Z,24.49
2022-07-27T16:13:02.947Z,24.54
2022-07-27T16:15:44.850Z,23.76
2022-07-27T16:18:13.006Z,24.13
2022-07-27T16:20:41.066Z,25.38
2022-07-27T16:23:17.731Z,24.35
2022-07-27T16:26:07.570Z,24.85
2022-07-27T16:28:38.830Z,24.62
2022-07-27T16:31:08.327Z,24.99
2022-07-27T16:33:36.431Z,23.97
2022-07-27T16:36:05.446Z,22.61
2022-07-27T16:38:35.114Z,23.85
2022-07-27T16:41:07.365Z,23.63
2022-07-27T16:43:38.084Z,24.74
2022-07-27T16:46:06.539Z,24.66
2022-07-27T16:48:41.538Z,23.76
2022-07-27T16:51:15.033Z,24.07
2022-07-27T16:53:46.230Z,22.79
2022-07-27T16:56:14.637Z,22.33
2022-07-27T16:58:43.455Z,23.90
2022-07-27T17:01:13.567Z,24.74
2022-07-27T17:03:51.368Z,25.25
2022-07-27T17:06:20.941Z,23.33
2022-07-27T17:08:50.341Z,23.31
2022-07-27T17:11:21.687Z,23.27
2022-07-27T17:13:50.131Z,22.99
2022-07-27T17:16:18.421Z,22.93
2022-07-27T17:18:47.161Z,22.13
2022-07-27T17:21:15.146Z,23.33
2022-07-27T17:23:43.865Z,23.45
2022-07-27T17:26:14.513Z,24.13
2022-07-27T17:28:42.449Z,24.00
2022-07-27T17:31:13.237Z,23.75
2022-07-27T17:33:42.390Z,24.31
2022-07-27T17:36:15.068Z,23.94
2022-07-27T17:38:43.909Z,22.83
2022-07-27T17:41:13.659Z,22.78
2022-07-27T17:43:41.665Z,21.73
2022-07-27T17:46:10.728Z,22.60
2022-07-27T17:48:40.692Z,22.28
2022-07-27T17:51:10.622Z,21.55
2022-07-27T17:53:39.083Z,20.42
2022-07-27T17:56:08.437Z,21.16
2022-07-27T17:58:38.217Z,21.07
2022-07-27T18:01:06.977Z,20.48
2022-07-27T18:03:35.149Z,20.43
2022-07-27T18:06:03.160Z,19.14
2022-07-27T18:08:31.165Z,19.35
2022-07-27T18:10:59.129Z,19.25
2022-07-27T18:13:39.593Z,20.74
2022-07-27T18:16:11.713Z,19.97
2022-07-27T18:18:40.916Z,19.75
2022-07-27T18:21:09.439Z,19.65
2022-07-27T18:23:37.391Z,20.26
2022-07-27T18:26:05.582Z,20.23
2022-07-27T18:28:39.495Z,19.78
2022-07-27T18:31:12.495Z,20.10
2022-07-27T18:33:45.790Z,20.08
2022-07-27T18:36:14.354Z,19.39
2022-07-27T18:38:45.049Z,18.98
2022-07-27T18:41:13.878Z,20.22
2022-07-27T18:43:41.785Z,19.63
2022-07-27T18:46:11.178Z,19.18
2022-07-27T18:48:39.174Z,20.12
2022-07-27T18:51:07.179Z,18.72
2022-07-27T18:53:35.101Z,19.27
2022-07-27T18:56:03.050Z,18.73
2022-07-27T18:58:30.993Z,19.00
2022-07-27T19:00:59.605Z,19.67
2022-07-27T19:03:28.944Z,19.52
2022-07-27T19:05:56.970Z,19.73
2022-07-27T19:08:25.270Z,18.79
2022-07-27T19:10:53.498Z,18.66
2022-07-27T19:13:21.446Z,18.90
2022-07-27T19:15:49.672Z,18.60
2022-07-27T19:18:17.722Z,18.85
2022-07-27T19:20:47.387Z,19.16
2022-07-27T19:23:15.467Z,18.42
2022-07-27T19:25:45.273Z,18.16
2022-07-27T19:28:15.841Z,18.48
2022-07-27T19:30:43.827Z,17.47
2022-07-27T19:33:11.816Z,16.85
2022-07-27T19:35:39.799Z,16.31
2022-07-27T19:38:09.595Z,16.38
2022-07-27T19:40:46.016Z,16.16
2022-07-27T19:43:15.049Z,15.71
2022-07-27T19:45:43.222Z,16.10
2022-07-27T19:48:11.342Z,15.74
2022-07-27T19:50:39.890Z,15.64
2022-07-27T19:53:09.574Z,15.82
2022-07-27T19:55:37.559Z,15.86
2022-07-27T19:58:08.337Z,15.92
2022-07-27T20:00:36.262Z,16.05
2022-07-27T20:03:04.410Z,16.00
2022-07-27T20:05:32.549Z,16.12
2022-07-27T20:08:00.607Z,15.93
2022-07-27T20:10:29.942Z,15.76
2022-07-27T20:12:57.894Z,15.95
2022-07-27T20:15:26.234Z,15.74
2022-07-27T20:17:54.210Z,16.21
2022-07-27T20:20:22.134Z,16.45
2022-07-27T20:22:50.117Z,16.36
2022-07-27T20:25:18.783Z,16.93
2022-07-27T20:27:48.823Z,16.22
2022-07-27T20:30:18.095Z,16.66
2022-07-27T20:32:46.485Z,16.84
2022-07-27T20:35:14.426Z,16.34
2022-07-27T20:37:42.576Z,16.09
2022-07-27T20:40:11.927Z,16.48
2022-07-27T20:42:41.059Z,16.42
2022-07-27T20:45:14.446Z,15.84
2022-07-27T20:47:43.083Z,15.74
2022-07-27T20:50:12.091Z,15.87
2022-07-27T20:52:40.518Z,15.87
2022-07-27T20:55:10.563Z,16.14
2022-07-27T20:57:38.571Z,16.53
2022-07-27T21:00:08.511Z,16.57
2022-07-27T21:02:38.022Z,16.49
2022-07-27T21:05:07.148Z,16.18
2022-07-27T21:07:35.497Z,16.56
2022-07-27T21:10:03.674Z,16.37
2022-07-27T21:12:31.665Z,16.53
2022-07-27T21:14:59.672Z,16.43
2022-07-27T21:17:27.662Z,16.39
2022-07-27T21:19:57.012Z,16.14
2022-07-27T21:22:24.945Z,16.50
2022-07-27T21:24:51.901Z,16.45
2022-07-27T21:27:20.895Z,16.50
2022-07-27T21:29:49.667Z,16.46
2022-07-27T21:32:17.913Z,16.29
2022-07-27T21:34:45.986Z,16.03
2022-07-27T21:37:15.738Z,16.16
2022-07-27T21:39:45.823Z,16.37
2022-07-27T21:42:13.836Z,16.42
2022-07-27T21:44:41.814Z,16.28
2022-07-27T21:47:13.718Z,16.15
2022-07-27T21:49:42.626Z,16.20
2022-07-27T21:52:11.318Z,15.89
2022-07-27T21:54:41.030Z,16.20
2022-07-27T21:57:09.051Z,15.98
2022-07-27T21:59:37.141Z,15.88
2022-07-27T22:02:05.170Z,16.03
2022-07-27T22:04:33.283Z,15.92
2022-07-27T22:07:01.273Z,15.63
2022-07-27T22:09:29.215Z,15.41
2022-07-27T22:11:58.684Z,15.39
2022-07-27T22:14:26.763Z,15.54
2022-07-27T22:16:54.778Z,16.17
2022-07-27T22:19:23.424Z,15.55
2022-07-27T22:21:51.412Z,15.49
2022-07-27T22:24:19.352Z,15.19
2022-07-27T22:26:47.318Z,15.23
2022-07-27T22:29:16.653Z,15.28
2022-07-27T22:31:44.732Z,15.31
2022-07-27T22:34:12.929Z,15.32
2022-07-27T22:36:41.001Z,15.12
2022-07-27T22:39:08.949Z,15.28
2022-07-27T22:41:36.920Z,15.15
2022-07-27T22:44:04.957Z,15.22
2022-07-27T22:46:34.422Z,15.92
2022-07-27T22:49:02.900Z,15.62
2022-07-27T22:51:49.703Z,15.05
2022-07-27T22:54:18.944Z,14.88
2022-07-27T22:56:47.313Z,14.85
2022-07-27T22:59:15.343Z,14.92
2022-07-27T23:01:47.537Z,14.62
2022-07-27T23:04:17.084Z,14.52
2022-07-27T23:06:45.603Z,14.33
2022-07-27T23:09:13.806Z,14.19
2022-07-27T23:11:42.194Z,14.24
2022-07-27T23:14:10.240Z,14.29
2022-07-27T23:16:38.532Z,14.07
2022-07-27T23:19:07.955Z,14.36
2022-07-27T23:21:37.510Z,14.31
2022-07-27T23:24:05.755Z,14.87
2022-07-27T23:26:33.732Z,14.95
2022-07-27T23:29:02.165Z,15.16
2022-07-27T23:31:30.237Z,14.85
2022-07-27T23:33:58.226Z,14.36
2022-07-27T23:36:27.699Z,14.43
2022-07-27T23:38:55.658Z,14.36
2022-07-27T23:41:23.585Z,14.51
2022-07-27T23:43:51.518Z,14.32
2022-07-27T23:46:19.614Z,14.21
2022-07-27T23:48:47.663Z,14.10
2022-07-27T23:51:19.005Z,13.77
2022-07-27T23:53:48.847Z,14.20
2022-07-27T23:56:16.846Z,14.23
2022-07-27T23:58:45.829Z,13.88
